LFMT/MPL METAR and TAF weather

Enter ICAO airport designator
Station Type Date Time Source
LFMT METAR 2019/08/22 09:30 UTC NOAA

LFMT 220930Z AUTO 02011KT 340V050 CAVOK 27/13 Q1020 NOSIG


Station Type Date Time Source
LFMT Decoded METAR 2019/08/22 09:30 UTC NOAA

Station name not available
Aug 22, 2019 - 05:30 AM EDT / 2019.08.22 0930 UTC
Wind: from the NNE (020 degrees) at 13 MPH (11 KT) (direction variable):0
Visibility: greater than 7 mile(s):0
Temperature: 80 F (27 C)
Dew Point: 55 F (13 C)
Relative Humidity: 41%
Pressure (altimeter): 30.12 in. Hg (1020 hPa)
ob: LFMT 220930Z AUTO 02011KT 340V050 CAVOK 27/13 Q1020 NOSIG
cycle: 9

Station Type Date Time Source
LFMT TAF 2019/08/22 09:26 UTC NOAA

TAF LFMT 220800Z 2209/2309 35010KT CAVOK
BECMG 2210/2212 VRB05KT
BECMG 2212/2214 22010KT
BECMG 2217/2219 02005KT

Example: see airport list